createdAt,value
2018-12-21T00:01:08.324Z,35.80
2018-12-21T00:03:37.790Z,35.57
2018-12-21T00:06:07.533Z,34.90
2018-12-21T00:08:37.292Z,36.42
2018-12-21T00:11:07.577Z,37.10
2018-12-21T00:13:37.109Z,38.07
2018-12-21T00:16:07.559Z,32.97
2018-12-21T00:18:36.930Z,36.13
2018-12-21T00:21:07.474Z,36.87
2018-12-21T00:23:36.826Z,36.17
2018-12-21T00:26:06.612Z,33.43
2018-12-21T00:28:36.108Z,34.60
2018-12-21T00:31:11.632Z,35.23
2018-12-21T00:33:46.865Z,34.98
2018-12-21T00:36:22.050Z,34.73
2018-12-21T00:38:58.038Z,32.67
2018-12-21T00:41:27.579Z,32.77
2018-12-21T00:44:02.224Z,35.27
2018-12-21T00:46:35.070Z,29.40
2018-12-21T00:49:05.179Z,35.17
2018-12-21T00:51:36.259Z,30.80
2018-12-21T00:54:06.249Z,33.87
2018-12-21T00:56:35.708Z,34.55
2018-12-21T00:59:05.523Z,33.20
2018-12-21T01:01:35.131Z,32.40
2018-12-21T01:04:04.643Z,32.93
2018-12-21T01:06:34.716Z,32.90
2018-12-21T01:09:05.565Z,33.17
2018-12-21T01:11:35.279Z,32.75
2018-12-21T01:14:04.858Z,37.87
2018-12-21T01:16:34.402Z,33.13
2018-12-21T01:19:04.054Z,31.17
2018-12-21T01:21:38.749Z,36.03
2018-12-21T01:24:05.611Z,32.93
2018-12-21T01:26:36.551Z,32.65
2018-12-21T01:29:07.164Z,30.55
2018-12-21T01:31:36.642Z,31.05
2018-12-21T01:34:06.411Z,31.63
2018-12-21T01:36:36.135Z,33.73
2018-12-21T01:39:07.252Z,30.13
2018-12-21T01:41:36.605Z,30.37
2018-12-21T01:44:06.337Z,32.33
2018-12-21T01:46:35.772Z,32.37
2018-12-21T01:49:06.127Z,29.80
2018-12-21T01:51:35.859Z,32.07
2018-12-21T01:54:05.708Z,31.20
2018-12-21T01:56:35.345Z,28.65
2018-12-21T01:59:05.886Z,28.33
2018-12-21T02:01:35.674Z,32.77
2018-12-21T02:04:05.523Z,26.70
2018-12-21T02:06:35.668Z,31.23
2018-12-21T02:09:08.460Z,26.93
2018-12-21T02:11:38.574Z,27.93
2018-12-21T02:14:08.027Z,28.43
2018-12-21T02:16:38.187Z,25.70
2018-12-21T02:19:07.562Z,26.35
2018-12-21T02:21:37.525Z,27.07
2018-12-21T02:24:07.400Z,22.63
2018-12-21T02:26:39.746Z,27.27
2018-12-21T02:29:09.076Z,22.20
2018-12-21T02:31:39.198Z,27.40
2018-12-21T02:34:09.703Z,25.20
2018-12-21T02:36:39.405Z,27.60
2018-12-21T02:39:09.595Z,25.17
2018-12-21T02:41:39.034Z,26.50
2018-12-21T02:44:09.174Z,24.93
2018-12-21T02:46:38.663Z,27.10
2018-12-21T02:49:08.520Z,25.97
2018-12-21T02:51:38.067Z,24.00
2018-12-21T02:54:07.501Z,23.67
2018-12-21T02:56:36.966Z,22.37
2018-12-21T02:59:06.879Z,24.57
2018-12-21T03:01:36.234Z,22.73
2018-12-21T03:04:06.606Z,28.87
2018-12-21T03:06:36.430Z,25.53
2018-12-21T03:09:09.701Z,24.53
2018-12-21T03:11:39.498Z,23.63
2018-12-21T03:14:09.259Z,21.20
2018-12-21T03:16:41.711Z,24.43
2018-12-21T03:19:11.477Z,23.77
2018-12-21T03:21:41.398Z,22.93
2018-12-21T03:24:11.050Z,25.83
2018-12-21T03:26:41.349Z,21.37
2018-12-21T03:29:10.883Z,24.23
2018-12-21T03:31:40.943Z,26.33
2018-12-21T03:34:10.967Z,23.10
2018-12-21T03:36:40.342Z,25.43
2018-12-21T03:39:10.256Z,23.77
2018-12-21T03:41:39.871Z,25.63
2018-12-21T03:44:09.915Z,23.83
2018-12-21T03:46:39.381Z,22.47
2018-12-21T03:49:10.219Z,24.67
2018-12-21T03:51:40.754Z,25.20
2018-12-21T03:54:10.156Z,25.13
2018-12-21T03:56:39.631Z,23.83
2018-12-21T04:01:42.894Z,22.87
2018-12-21T04:04:14.431Z,26.27
2018-12-21T04:06:44.871Z,24.37
2018-12-21T04:09:15.499Z,20.17
2018-12-21T04:11:44.972Z,21.97
2018-12-21T04:14:14.831Z,22.17
2018-12-21T04:16:44.395Z,21.27
2018-12-21T04:19:14.176Z,23.17
2018-12-21T04:21:43.802Z,25.10
2018-12-21T04:24:13.223Z,23.83
2018-12-21T04:26:42.610Z,22.52
2018-12-21T04:29:12.644Z,25.03
2018-12-21T04:31:42.667Z,23.65
2018-12-21T04:34:12.338Z,23.97
2018-12-21T04:36:41.961Z,28.10
2018-12-21T04:39:12.002Z,25.23
2018-12-21T04:41:41.387Z,24.90
2018-12-21T04:44:13.750Z,21.87
2018-12-21T04:46:43.668Z,28.03
2018-12-21T04:49:13.076Z,26.03
2018-12-21T04:51:45.219Z,25.02
2018-12-21T04:56:43.711Z,22.57
2018-12-21T04:59:13.357Z,23.50
2018-12-21T05:01:43.498Z,22.75
2018-12-21T05:04:19.845Z,22.97
2018-12-21T05:06:45.717Z,22.77
2018-12-21T05:09:15.887Z,20.77
2018-12-21T05:11:45.259Z,22.47
2018-12-21T05:14:14.809Z,22.90
2018-12-21T05:16:44.251Z,23.42
2018-12-21T05:19:19.075Z,20.33
2018-12-21T05:21:48.683Z,23.02
2018-12-21T05:24:18.051Z,22.43
2018-12-21T05:26:47.697Z,24.47
2018-12-21T05:29:17.408Z,25.20
2018-12-21T05:31:52.250Z,21.00
2018-12-21T05:34:22.006Z,23.73
2018-12-21T05:36:51.702Z,24.70
2018-12-21T05:39:21.467Z,23.43
2018-12-21T05:41:53.037Z,22.37
2018-12-21T05:44:25.422Z,25.50
2018-12-21T05:46:57.003Z,25.20
2018-12-21T05:49:29.006Z,24.27
2018-12-21T05:52:00.850Z,24.70
2018-12-21T05:54:33.050Z,28.73
2018-12-21T05:57:03.197Z,27.80
2018-12-21T05:59:33.898Z,26.30
2018-12-21T06:02:05.504Z,25.90
2018-12-21T06:04:35.054Z,25.67
2018-12-21T06:07:05.511Z,22.52
2018-12-21T06:09:35.017Z,23.33
2018-12-21T06:12:04.677Z,24.67
2018-12-21T06:14:34.021Z,23.10
2018-12-21T06:17:03.646Z,23.47
2018-12-21T06:19:33.376Z,26.10
2018-12-21T06:22:04.117Z,24.87
2018-12-21T06:24:40.301Z,24.27
2018-12-21T06:27:12.523Z,24.10
2018-12-21T06:29:43.729Z,24.90
2018-12-21T06:32:15.532Z,21.97
2018-12-21T06:34:45.137Z,20.77
2018-12-21T06:37:14.570Z,21.10
2018-12-21T06:39:44.423Z,21.27
2018-12-21T06:42:14.490Z,20.90
2018-12-21T06:44:44.611Z,19.33
2018-12-21T06:47:14.689Z,21.37
2018-12-21T06:49:44.782Z,18.77
2018-12-21T06:52:14.458Z,18.07
2018-12-21T06:54:44.046Z,16.00
2018-12-21T06:57:13.508Z,15.93
2018-12-21T06:59:42.859Z,16.20
2018-12-21T07:02:12.828Z,17.37
2018-12-21T07:04:42.214Z,17.67
2018-12-21T07:07:11.746Z,16.07
2018-12-21T07:09:41.083Z,13.23
2018-12-21T07:12:10.160Z,14.90
2018-12-21T07:14:40.133Z,13.90
2018-12-21T07:17:09.782Z,12.63
2018-12-21T07:19:39.246Z,12.70
2018-12-21T07:22:09.961Z,11.87
2018-12-21T07:24:40.247Z,13.78
2018-12-21T07:27:09.645Z,12.20
2018-12-21T07:29:39.445Z,13.80
2018-12-21T07:32:08.811Z,13.13
2018-12-21T07:34:39.202Z,12.57
2018-12-21T07:37:08.678Z,13.57
2018-12-21T07:39:37.995Z,13.43
2018-12-21T07:42:07.426Z,13.97
2018-12-21T07:44:36.813Z,13.10
2018-12-21T07:47:06.169Z,14.00
2018-12-21T07:49:36.826Z,17.43
2018-12-21T07:52:06.544Z,16.00
2018-12-21T07:54:36.900Z,16.23
2018-12-21T07:57:08.011Z,18.60
2018-12-21T07:59:37.662Z,18.93
2018-12-21T08:02:08.923Z,16.00
2018-12-21T08:04:38.577Z,16.97
2018-12-21T08:07:09.511Z,15.90
2018-12-21T08:09:39.362Z,16.23
2018-12-21T08:12:09.426Z,18.23
2018-12-21T08:14:41.209Z,17.45
2018-12-21T08:17:11.749Z,16.33
2018-12-21T08:19:41.195Z,17.13
2018-12-21T08:22:11.024Z,16.43
2018-12-21T08:24:40.403Z,18.63
2018-12-21T08:27:11.210Z,18.57
2018-12-21T08:29:40.576Z,19.00
2018-12-21T08:32:10.347Z,20.17
2018-12-21T08:34:39.695Z,18.57
2018-12-21T08:37:09.030Z,18.20
2018-12-21T08:39:39.108Z,20.92
2018-12-21T08:42:08.468Z,17.80
2018-12-21T08:44:38.122Z,18.40
2018-12-21T08:47:07.851Z,21.63
2018-12-21T08:49:39.777Z,21.57
2018-12-21T08:52:09.730Z,21.67
2018-12-21T08:54:39.552Z,21.40
2018-12-21T08:57:09.356Z,21.90
2018-12-21T08:59:41.376Z,25.70
2018-12-21T09:02:11.850Z,23.20
2018-12-21T09:04:44.271Z,23.83
2018-12-21T09:07:14.192Z,27.37
2018-12-21T09:09:48.965Z,23.17
2018-12-21T09:12:18.389Z,24.77
2018-12-21T09:14:48.890Z,26.63
2018-12-21T09:17:18.763Z,24.00
2018-12-21T09:19:48.349Z,25.70
2018-12-21T09:22:17.984Z,24.53
2018-12-21T09:24:47.438Z,24.90
2018-12-21T09:27:16.834Z,21.27
2018-12-21T09:29:46.720Z,26.83
2018-12-21T09:32:16.122Z,23.60
2018-12-21T09:34:46.014Z,26.48
2018-12-21T09:37:16.264Z,25.83
2018-12-21T09:39:46.732Z,25.37
2018-12-21T09:42:16.226Z,28.50
2018-12-21T09:44:52.501Z,25.23
2018-12-21T09:47:18.400Z,23.10
2018-12-21T09:49:47.826Z,25.40
2018-12-21T09:52:19.594Z,25.57
2018-12-21T09:54:49.255Z,23.40
2018-12-21T09:57:18.614Z,21.87
2018-12-21T09:59:48.059Z,22.77
2018-12-21T10:02:17.514Z,22.47
2018-12-21T10:04:47.221Z,24.92
2018-12-21T10:07:16.739Z,25.17
2018-12-21T10:09:46.926Z,25.52
2018-12-21T10:12:16.626Z,22.90
2018-12-21T10:14:46.154Z,23.12
2018-12-21T10:17:15.874Z,21.73
2018-12-21T10:19:45.746Z,26.55
2018-12-21T10:22:15.478Z,25.63
2018-12-21T10:24:45.607Z,24.07
2018-12-21T10:27:15.819Z,23.67
2018-12-21T10:29:45.198Z,24.12
2018-12-21T10:32:16.845Z,23.83
2018-12-21T10:34:46.250Z,26.57
2018-12-21T10:37:16.744Z,26.53
2018-12-21T10:39:46.653Z,29.57
2018-12-21T10:42:15.993Z,27.13
2018-12-21T10:44:45.922Z,29.27
2018-12-21T10:47:15.365Z,32.53
2018-12-21T10:49:47.136Z,31.67
2018-12-21T10:52:18.490Z,33.17
2018-12-21T10:54:49.446Z,33.03
2018-12-21T10:57:21.814Z,30.63
2018-12-21T10:59:53.037Z,31.90
2018-12-21T11:02:23.123Z,29.60
2018-12-21T11:04:52.504Z,33.53
2018-12-21T11:07:24.226Z,33.50
2018-12-21T11:09:53.721Z,36.40
2018-12-21T11:12:24.597Z,34.60
2018-12-21T11:14:54.669Z,37.50
2018-12-21T11:17:24.192Z,33.97
2018-12-21T11:19:54.292Z,34.80
2018-12-21T11:22:23.709Z,36.93
2018-12-21T11:24:53.624Z,29.20
2018-12-21T11:27:23.853Z,32.00
2018-12-21T11:29:55.188Z,38.58
2018-12-21T11:32:24.842Z,37.77
2018-12-21T11:34:54.965Z,37.80
2018-12-21T11:37:24.974Z,34.30
2018-12-21T11:39:54.422Z,36.17
2018-12-21T11:42:24.202Z,36.27
2018-12-21T11:44:53.644Z,40.13
2018-12-21T11:47:23.345Z,36.93
2018-12-21T11:49:53.641Z,35.55
2018-12-21T11:52:23.021Z,40.37
2018-12-21T11:54:52.354Z,35.23
2018-12-21T11:57:21.957Z,40.48
2018-12-21T11:59:51.399Z,38.98
2018-12-21T12:02:20.824Z,36.23
2018-12-21T12:04:50.842Z,34.37
2018-12-21T12:07:20.270Z,38.57
2018-12-21T12:09:50.106Z,37.17
2018-12-21T12:12:19.520Z,33.07
2018-12-21T12:14:49.760Z,38.50
2018-12-21T12:17:19.555Z,36.70
2018-12-21T12:19:49.979Z,30.40
2018-12-21T12:22:19.784Z,36.77
2018-12-21T12:24:52.883Z,34.43
2018-12-21T12:27:21.246Z,33.23
2018-12-21T12:29:50.586Z,34.65
2018-12-21T12:32:21.174Z,38.20
2018-12-21T12:34:51.543Z,33.50
2018-12-21T12:37:20.885Z,35.23
2018-12-21T12:39:50.633Z,36.23
2018-12-21T12:42:20.470Z,35.17
2018-12-21T12:44:50.022Z,37.27
2018-12-21T12:47:19.411Z,39.53
2018-12-21T12:49:49.387Z,35.63
2018-12-21T12:52:19.203Z,30.20
2018-12-21T12:54:48.778Z,29.32
2018-12-21T12:57:18.766Z,31.67
2018-12-21T12:59:48.136Z,31.43
2018-12-21T13:02:18.618Z,25.80
2018-12-21T13:04:48.079Z,30.35
2018-12-21T13:07:18.256Z,27.50
2018-12-21T13:09:47.998Z,30.17
2018-12-21T13:12:17.350Z,33.33
2018-12-21T13:14:46.710Z,30.48
2018-12-21T13:17:16.904Z,30.53
2018-12-21T13:19:46.848Z,29.67
2018-12-21T13:22:17.031Z,27.67
2018-12-21T13:24:46.471Z,32.23
2018-12-21T13:27:16.482Z,28.93
2018-12-21T13:29:45.916Z,26.65
2018-12-21T13:32:15.333Z,26.70
2018-12-21T13:34:44.734Z,31.10
2018-12-21T13:37:14.264Z,22.23
2018-12-21T13:39:43.872Z,26.13
2018-12-21T13:42:14.626Z,24.50
2018-12-21T13:44:44.567Z,24.80
2018-12-21T13:47:13.946Z,23.40
2018-12-21T13:49:44.066Z,25.25
2018-12-21T13:52:13.494Z,23.97
2018-12-21T13:54:42.912Z,28.47
2018-12-21T13:57:12.297Z,25.10
2018-12-21T13:59:42.584Z,28.30
2018-12-21T14:02:12.135Z,21.50
2018-12-21T14:04:41.849Z,21.03
2018-12-21T14:07:11.655Z,17.97
2018-12-21T14:09:43.508Z,19.47
2018-12-21T14:12:13.006Z,21.07
2018-12-21T14:14:42.518Z,17.65
2018-12-21T14:17:13.986Z,20.80
2018-12-21T14:19:43.370Z,15.95
2018-12-21T14:22:12.851Z,22.33
2018-12-21T14:24:42.319Z,17.03
2018-12-21T14:27:11.670Z,16.87
2018-12-21T14:29:41.177Z,17.30
2018-12-21T14:32:11.941Z,14.90
2018-12-21T14:34:41.284Z,16.00
2018-12-21T14:37:10.653Z,17.53
2018-12-21T14:39:40.892Z,16.63
2018-12-21T14:42:10.338Z,15.90
2018-12-21T14:44:39.948Z,13.63
2018-12-21T14:47:09.423Z,13.83
2018-12-21T14:49:39.571Z,15.50
2018-12-21T14:52:09.197Z,13.50
2018-12-21T14:54:42.224Z,15.83
2018-12-21T14:57:11.745Z,15.27
2018-12-21T14:59:41.497Z,16.50
2018-12-21T15:02:11.421Z,15.07
2018-12-21T15:04:42.554Z,13.97
2018-12-21T15:07:12.030Z,16.33
2018-12-21T15:09:42.312Z,14.50
2018-12-21T15:12:11.879Z,15.10
2018-12-21T15:14:41.254Z,16.63
2018-12-21T15:17:10.673Z,16.50
2018-12-21T15:19:41.716Z,14.50
2018-12-21T15:22:11.169Z,14.47
2018-12-21T15:24:41.158Z,15.07
2018-12-21T15:27:10.626Z,16.33
2018-12-21T15:29:41.150Z,13.73
2018-12-21T15:32:11.231Z,14.63
2018-12-21T15:34:41.147Z,15.10
2018-12-21T15:37:11.112Z,16.60
2018-12-21T15:39:43.900Z,14.47
2018-12-21T15:42:13.406Z,16.10
2018-12-21T15:44:42.950Z,16.50
2018-12-21T15:47:12.992Z,14.37
2018-12-21T15:49:42.344Z,14.93
2018-12-21T15:52:12.257Z,17.27
2018-12-21T15:54:41.735Z,15.43
2018-12-21T15:57:11.161Z,14.67
2018-12-21T15:59:41.126Z,17.17
2018-12-21T16:02:10.755Z,18.47
2018-12-21T16:04:40.469Z,17.73
2018-12-21T16:07:09.856Z,18.97
2018-12-21T16:09:39.491Z,15.37
2018-12-21T16:12:08.962Z,19.43
2018-12-21T16:14:39.515Z,17.32
2018-12-21T16:17:09.442Z,18.70
2018-12-21T16:19:39.530Z,17.70
2018-12-21T16:22:10.932Z,17.33
2018-12-21T16:24:40.842Z,20.67
2018-12-21T16:27:10.206Z,17.27
2018-12-21T16:29:39.535Z,17.30
2018-12-21T16:32:08.891Z,15.70
2018-12-21T16:34:38.299Z,18.17
2018-12-21T16:37:07.690Z,17.70
2018-12-21T16:39:37.085Z,19.13
2018-12-21T16:42:06.588Z,18.90
2018-12-21T16:44:36.598Z,18.20
2018-12-21T16:47:06.781Z,19.63
2018-12-21T16:49:36.122Z,19.47
2018-12-21T16:52:05.560Z,18.97
2018-12-21T16:54:35.154Z,21.63
2018-12-21T16:57:05.242Z,17.03
2018-12-21T16:59:38.433Z,19.90
2018-12-21T17:02:08.070Z,19.83
2018-12-21T17:04:39.463Z,21.03
2018-12-21T17:07:09.022Z,19.20
2018-12-21T17:09:39.886Z,21.80
2018-12-21T17:12:09.339Z,28.83
2018-12-21T17:14:39.697Z,25.40
2018-12-21T17:17:09.256Z,19.70
2018-12-21T17:19:41.310Z,20.83
2018-12-21T17:22:10.767Z,23.43
2018-12-21T17:24:40.266Z,24.10
2018-12-21T17:27:09.824Z,23.17
2018-12-21T17:29:40.077Z,22.27
2018-12-21T17:32:09.612Z,30.80
2018-12-21T17:34:39.804Z,27.07
2018-12-21T17:37:09.199Z,25.57
2018-12-21T17:39:39.581Z,25.73
2018-12-21T17:42:09.951Z,25.63
2018-12-21T17:44:40.300Z,26.42
2018-12-21T17:47:09.767Z,21.53
2018-12-21T17:49:42.394Z,28.63
2018-12-21T17:52:12.038Z,24.98
2018-12-21T17:54:41.458Z,26.33
2018-12-21T17:57:10.816Z,26.00
2018-12-21T17:59:40.253Z,23.53
2018-12-21T18:02:09.632Z,28.20
2018-12-21T18:04:39.930Z,28.38
2018-12-21T18:07:09.399Z,27.57
2018-12-21T18:09:40.054Z,24.37
2018-12-21T18:12:09.770Z,27.57
2018-12-21T18:14:39.933Z,24.50
2018-12-21T18:17:09.710Z,25.47
2018-12-21T18:19:40.068Z,30.17
2018-12-21T18:22:15.498Z,24.20
2018-12-21T18:24:47.762Z,22.42
2018-12-21T18:27:17.174Z,27.40
2018-12-21T18:29:47.051Z,28.90
2018-12-21T18:32:23.434Z,26.17
2018-12-21T18:34:52.830Z,26.97
2018-12-21T18:37:22.463Z,24.90
2018-12-21T18:39:57.144Z,22.10
2018-12-21T18:42:26.703Z,26.60
2018-12-21T18:44:56.146Z,21.82
2018-12-21T18:47:25.537Z,21.23
2018-12-21T18:49:55.028Z,26.25
2018-12-21T18:52:24.751Z,27.53
2018-12-21T18:54:54.183Z,25.30
2018-12-21T18:57:25.729Z,22.93
2018-12-21T18:59:55.271Z,25.88
2018-12-21T19:02:26.105Z,23.73
2018-12-21T19:04:55.595Z,25.50
2018-12-21T19:07:24.967Z,24.37
2018-12-21T19:09:54.534Z,27.27
2018-12-21T19:12:23.910Z,30.60
2018-12-21T19:14:53.835Z,24.37
2018-12-21T19:17:23.286Z,30.30
2018-12-21T19:19:52.678Z,29.67
2018-12-21T19:22:22.070Z,27.63
2018-12-21T19:24:51.871Z,28.17
2018-12-21T19:27:21.299Z,34.23
2018-12-21T19:29:51.077Z,29.12
2018-12-21T19:32:21.102Z,26.00
2018-12-21T19:34:50.518Z,25.65
2018-12-21T19:37:20.034Z,28.13
2018-12-21T19:39:50.910Z,28.03
2018-12-21T19:42:20.642Z,26.23
2018-12-21T19:44:50.248Z,28.32
2018-12-21T19:47:19.948Z,24.07
2018-12-21T19:49:49.803Z,26.77
2018-12-21T19:52:19.270Z,28.63
2018-12-21T19:54:55.468Z,26.07
2018-12-21T19:57:25.321Z,25.20
2018-12-21T19:59:54.854Z,29.83
2018-12-21T20:02:30.319Z,25.00
2018-12-21T20:05:00.308Z,26.67
2018-12-21T20:07:29.959Z,27.80
2018-12-21T20:09:59.781Z,28.77
2018-12-21T20:12:29.289Z,24.13
2018-12-21T20:14:58.736Z,27.40
2018-12-21T20:17:28.365Z,27.67
2018-12-21T20:19:57.807Z,26.53
2018-12-21T20:22:27.563Z,27.87
2018-12-21T20:24:56.970Z,27.80
2018-12-21T20:27:26.392Z,28.77
2018-12-21T20:29:55.785Z,26.87
2018-12-21T20:32:26.540Z,26.95
2018-12-21T20:34:56.144Z,28.93
2018-12-21T20:37:26.091Z,28.83
2018-12-21T20:39:55.604Z,33.53
2018-12-21T20:42:25.313Z,27.47
2018-12-21T20:44:54.951Z,30.90
2018-12-21T20:47:26.552Z,29.70
2018-12-21T20:49:56.053Z,27.65
2018-12-21T20:52:25.541Z,27.25
2018-12-21T20:54:57.119Z,32.57
2018-12-21T20:57:30.636Z,28.40
2018-12-21T21:00:01.027Z,27.13
2018-12-21T21:02:30.762Z,27.63
2018-12-21T21:05:04.693Z,31.40
2018-12-21T21:07:36.094Z,28.10
2018-12-21T21:10:08.353Z,29.60
2018-12-21T21:12:38.120Z,31.40
2018-12-21T21:15:10.242Z,28.47
2018-12-21T21:17:40.718Z,28.17
2018-12-21T21:20:12.606Z,30.37
2018-12-21T21:22:42.116Z,33.30
2018-12-21T21:25:11.662Z,31.53
2018-12-21T21:27:41.039Z,28.70
2018-12-21T21:30:13.795Z,31.50
2018-12-21T21:32:43.326Z,30.43
2018-12-21T21:35:12.874Z,32.43
2018-12-21T21:37:42.285Z,30.50
2018-12-21T21:40:17.698Z,27.37
2018-12-21T21:42:48.337Z,32.60
2018-12-21T21:45:18.058Z,29.47
2018-12-21T21:47:47.635Z,29.42
2018-12-21T21:50:17.185Z,28.63
2018-12-21T21:52:47.018Z,26.62
2018-12-21T21:55:16.476Z,32.70
2018-12-21T21:57:46.167Z,28.60
2018-12-21T22:00:17.023Z,29.10
2018-12-21T22:02:46.858Z,27.53
2018-12-21T22:05:16.865Z,31.37
2018-12-21T22:07:46.245Z,26.40
2018-12-21T22:10:15.714Z,28.73
2018-12-21T22:12:45.686Z,22.00
2018-12-21T22:15:15.464Z,25.87
2018-12-21T22:17:44.921Z,28.40
2018-12-21T22:20:14.486Z,22.10
2018-12-21T22:22:43.954Z,22.10
2018-12-21T22:25:13.382Z,25.10
2018-12-21T22:27:47.886Z,24.03
2018-12-21T22:30:15.231Z,23.93
2018-12-21T22:32:44.708Z,25.37
2018-12-21T22:35:14.622Z,22.60
2018-12-21T22:37:44.018Z,24.07
2018-12-21T22:40:13.410Z,22.63
2018-12-21T22:42:42.865Z,22.50
2018-12-21T22:45:13.140Z,23.10
2018-12-21T22:47:43.083Z,21.70
2018-12-21T22:50:12.823Z,25.97
2018-12-21T22:52:43.963Z,21.67
2018-12-21T22:55:14.851Z,21.63
2018-12-21T22:57:46.287Z,23.73
2018-12-21T23:00:29.008Z,20.05
2018-12-21T23:03:00.306Z,18.13
2018-12-21T23:05:31.864Z,18.90
2018-12-21T23:08:01.984Z,16.20
2018-12-21T23:10:32.840Z,16.77
2018-12-21T23:13:05.439Z,17.17
2018-12-21T23:15:37.600Z,18.47
2018-12-21T23:18:09.662Z,16.53
2018-12-21T23:20:41.124Z,13.53
2018-12-21T23:23:12.656Z,18.45
2018-12-21T23:25:45.074Z,14.80
2018-12-21T23:28:16.290Z,18.87
2018-12-21T23:30:45.782Z,16.17
2018-12-21T23:33:17.091Z,13.77
2018-12-21T23:35:47.433Z,15.88
2018-12-21T23:38:17.617Z,15.57
2018-12-21T23:40:47.425Z,14.93
2018-12-21T23:43:17.285Z,14.73
2018-12-21T23:45:49.819Z,15.75
2018-12-21T23:48:20.671Z,15.70
2018-12-21T23:50:51.923Z,16.67
2018-12-21T23:53:21.931Z,16.23
2018-12-21T23:55:51.818Z,17.00
2018-12-21T23:58:21.944Z,17.20
